ADDS METAR Data INFO
IDs: Format: Raw Decoded Include TAF

Data at: 0918 UTC 13 Dec 2017

KLRD 122356Z COR 33008KT 10SM SKC 16/06 A3030
KLRD 122256Z COR 33010KT 10SM SKC 19/06 A3030
KLRD 122156Z COR 35010KT 10SM SKC 20/06 A3031
KLRD 122056Z COR 350/10 10 SKC 21/06 A3032
KLRD 121957Z 34010KT 10SM CLR M/M A3035
KLRD 121857Z 35009KT 10SM CLR 23/06 A3038
KLRD 121757Z 02009KT 10SM CLR 22/06 3042
KLRD 121657Z 03020KT 10SM CLR 21/06 A3043
KLRD 121556Z CLR RMK AO2 SLPNO $
KLRD 121459Z 32006KT 10SM CLR M/M A3039
KLRD 121456Z 31005KT 11/08 A3039 RMK AO2 SLPNO 6//// T01060083
KLRD 121357Z VRB04 10SM CLR M/M A3038
KLRD 121257Z 00000KT 10SM CLR M/M A3034
KLRD 121155Z COR 300/10 10 SKC M/M A3033
KLRD 120156Z 16/07 RMK AO2 SLPNO T01560067 $
KLRD 120056Z 00000KT 10SM CLR 17/05 A3024 RMK AO2 SLP252 T01670050
KLRD 112256Z 20/03 RMK AO2 SLPNO T02000033 $
KLRD 112156Z 23004KT 10SM CLR 21/03 A3025 RMK AO2 SLP254 T02060028